Aviation Digital Data Service (ADDS)

Output produced by METARs form (1131 UTC 18 June 2019)
found at http://www.aviationweather.gov/metar/data/
 
METAR text: ENBR 181120Z 20013KT 9999 FEW012TCU SCT019 BKN023 14/11 Q1011 NOSIG RMK WIND 1200FT 19020KT
Conditions at: ENBR (BERGEN/FLESLAND , NO) observed 1120 UTC 18 June 2019
Temperature: 14.0°C (57°F)
Dewpoint: 11.0°C (52°F) [RH = 82%]
Pressure (altimeter): 29.85 inches Hg (1011.0 mb)
Winds: from the SSW (200 degrees) at 15 MPH (13 knots; 6.7 m/s)
Visibility: 6 or more miles (10+ km)
Ceiling: 2300 feet AGL
Clouds: few clouds at 1200 feet AGL
scattered clouds at 1900 feet AGL
broken clouds at 2300 feet AGL
Weather: no significant weather observed at this time

METAR text: ENBR 181050Z 19010KT 9999 FEW012TCU SCT019 BKN023 15/11 Q1011 NOSIG RMK WIND 1200FT 18019KT
Conditions at: ENBR (BERGEN/FLESLAND , NO) observed 1050 UTC 18 June 2019
Temperature: 15.0°C (59°F)
Dewpoint: 11.0°C (52°F) [RH = 77%]
Pressure (altimeter): 29.85 inches Hg (1011.0 mb)
Winds: from the S (190 degrees) at 12 MPH (10 knots; 5.1 m/s)
Visibility: 6 or more miles (10+ km)
Ceiling: 2300 feet AGL
Clouds: few clouds at 1200 feet AGL
scattered clouds at 1900 feet AGL
broken clouds at 2300 feet AGL
Weather: no significant weather observed at this time

METAR text: ENBR 181020Z 19010KT 9999 FEW012TCU SCT019 BKN023 15/11 Q1011 NOSIG RMK WIND 1200FT 18020G31KT
Conditions at: ENBR (BERGEN/FLESLAND , NO) observed 1020 UTC 18 June 2019
Temperature: 15.0°C (59°F)
Dewpoint: 11.0°C (52°F) [RH = 77%]
Pressure (altimeter): 29.85 inches Hg (1011.0 mb)
Winds: from the S (190 degrees) at 12 MPH (10 knots; 5.1 m/s)
Visibility: 6 or more miles (10+ km)
Ceiling: 2300 feet AGL
Clouds: few clouds at 1200 feet AGL
scattered clouds at 1900 feet AGL
broken clouds at 2300 feet AGL
Weather: no significant weather observed at this time

METAR text: ENBR 180950Z 20013KT 9999 FEW012TCU BKN019 14/10 Q1011 NOSIG RMK WIND 1200FT 18020KT
Conditions at: ENBR (BERGEN/FLESLAND , NO) observed 0950 UTC 18 June 2019
Temperature: 14.0°C (57°F)
Dewpoint: 10.0°C (50°F) [RH = 77%]
Pressure (altimeter): 29.85 inches Hg (1011.0 mb)
Winds: from the SSW (200 degrees) at 15 MPH (13 knots; 6.7 m/s)
Visibility: 6 or more miles (10+ km)
Ceiling: 1900 feet AGL
Clouds: few clouds at 1200 feet AGL
broken clouds at 1900 feet AGL
Weather: no significant weather observed at this time

METAR text: ENBR 180920Z 19012KT 9999 FEW012TCU SCT017 BKN023 14/11 Q1011 NOSIG RMK WIND 1200FT 18019KT
Conditions at: ENBR (BERGEN/FLESLAND , NO) observed 0920 UTC 18 June 2019
Temperature: 14.0°C (57°F)
Dewpoint: 11.0°C (52°F) [RH = 82%]
Pressure (altimeter): 29.85 inches Hg (1011.0 mb)
Winds: from the S (190 degrees) at 14 MPH (12 knots; 6.2 m/s)
Visibility: 6 or more miles (10+ km)
Ceiling: 2300 feet AGL
Clouds: few clouds at 1200 feet AGL
scattered clouds at 1700 feet AGL
broken clouds at 2300 feet AGL
Weather: no significant weather observed at this time

METAR text: ENBR 180850Z 17014KT 9999 FEW012TCU SCT017 BKN023 14/11 Q1011 NOSIG RMK WIND 1200FT 17018KT
Conditions at: ENBR (BERGEN/FLESLAND , NO) observed 0850 UTC 18 June 2019
Temperature: 14.0°C (57°F)
Dewpoint: 11.0°C (52°F) [RH = 82%]
Pressure (altimeter): 29.85 inches Hg (1011.0 mb)
Winds: from the S (170 degrees) at 16 MPH (14 knots; 7.2 m/s)
Visibility: 6 or more miles (10+ km)
Ceiling: 2300 feet AGL
Clouds: few clouds at 1200 feet AGL
scattered clouds at 1700 feet AGL
broken clouds at 2300 feet AGL
Weather: no significant weather observed at this time

METAR text: ENBR 180820Z 18014KT 9999 FEW012TCU SCT019 BKN025 13/10 Q1011 NOSIG RMK WIND 1200FT 17018KT
Conditions at: ENBR (BERGEN/FLESLAND , NO) observed 0820 UTC 18 June 2019
Temperature: 13.0°C (55°F)
Dewpoint: 10.0°C (50°F) [RH = 82%]
Pressure (altimeter): 29.85 inches Hg (1011.0 mb)
Winds: from the S (180 degrees) at 16 MPH (14 knots; 7.2 m/s)
Visibility: 6 or more miles (10+ km)
Ceiling: 2500 feet AGL
Clouds: few clouds at 1200 feet AGL
scattered clouds at 1900 feet AGL
broken clouds at 2500 feet AGL
Weather: no significant weather observed at this time

METAR text: ENBR 180750Z 18015KT 9999 FEW012TCU SCT019 BKN022 13/10 Q1011 NOSIG RMK WIND 1200FT 18017KT
Conditions at: ENBR (BERGEN/FLESLAND , NO) observed 0750 UTC 18 June 2019
Temperature: 13.0°C (55°F)
Dewpoint: 10.0°C (50°F) [RH = 82%]
Pressure (altimeter): 29.85 inches Hg (1011.0 mb)
Winds: from the S (180 degrees) at 17 MPH (15 knots; 7.7 m/s)
Visibility: 6 or more miles (10+ km)
Ceiling: 2200 feet AGL
Clouds: few clouds at 1200 feet AGL
scattered clouds at 1900 feet AGL
broken clouds at 2200 feet AGL
Weather: no significant weather observed at this time

METAR text: ENBR 180720Z 18016KT 9999 FEW012TCU SCT014 BKN019 13/10 Q1011 NOSIG RMK WIND 1200FT 17017G27KT
Conditions at: ENBR (BERGEN/FLESLAND , NO) observed 0720 UTC 18 June 2019
Temperature: 13.0°C (55°F)
Dewpoint: 10.0°C (50°F) [RH = 82%]
Pressure (altimeter): 29.85 inches Hg (1011.0 mb)
Winds: from the S (180 degrees) at 18 MPH (16 knots; 8.2 m/s)
Visibility: 6 or more miles (10+ km)
Ceiling: 1900 feet AGL
Clouds: few clouds at 1200 feet AGL
scattered clouds at 1400 feet AGL
broken clouds at 1900 feet AGL
Weather: no significant weather observed at this time

METAR text: ENBR 180650Z 18015KT 9999 FEW012TCU SCT015 BKN020 13/10 Q1011 NOSIG RMK WIND 1200FT 18018KT
Conditions at: ENBR (BERGEN/FLESLAND , NO) observed 0650 UTC 18 June 2019
Temperature: 13.0°C (55°F)
Dewpoint: 10.0°C (50°F) [RH = 82%]
Pressure (altimeter): 29.85 inches Hg (1011.0 mb)
Winds: from the S (180 degrees) at 17 MPH (15 knots; 7.7 m/s)
Visibility: 6 or more miles (10+ km)
Ceiling: 2000 feet AGL
Clouds: few clouds at 1200 feet AGL
scattered clouds at 1500 feet AGL
broken clouds at 2000 feet AGL
Weather: no significant weather observed at this time

METAR text: ENBR 180620Z 18014KT 9999 VCSH FEW012TCU SCT014 BKN020 13/11 Q1011 NOSIG RMK WIND 1200FT 17016G26KT
Conditions at: ENBR (BERGEN/FLESLAND , NO) observed 0620 UTC 18 June 2019
Temperature: 13.0°C (55°F)
Dewpoint: 11.0°C (52°F) [RH = 88%]
Pressure (altimeter): 29.85 inches Hg (1011.0 mb)
Winds: from the S (180 degrees) at 16 MPH (14 knots; 7.2 m/s)
Visibility: 6 or more miles (10+ km)
Ceiling: 2000 feet AGL
Clouds: few clouds at 1200 feet AGL
scattered clouds at 1400 feet AGL
broken clouds at 2000 feet AGL
Weather: VCSH  (showers in vicinity)

METAR text: ENBR 180550Z 17015KT 9999 VCSH FEW012TCU SCT014 BKN020 13/11 Q1011 NOSIG RMK WIND 1200FT 17017G27KT
Conditions at: ENBR (BERGEN/FLESLAND , NO) observed 0550 UTC 18 June 2019
Temperature: 13.0°C (55°F)
Dewpoint: 11.0°C (52°F) [RH = 88%]
Pressure (altimeter): 29.85 inches Hg (1011.0 mb)
Winds: from the S (170 degrees) at 17 MPH (15 knots; 7.7 m/s)
Visibility: 6 or more miles (10+ km)
Ceiling: 2000 feet AGL
Clouds: few clouds at 1200 feet AGL
scattered clouds at 1400 feet AGL
broken clouds at 2000 feet AGL
Weather: VCSH  (showers in vicinity)

METAR text: ENBR 180520Z 16016KT 9999 VCSH FEW008 SCT015 BKN020 13/10 Q1010 NOSIG RMK WIND 1200FT 16020KT
Conditions at: ENBR (BERGEN/FLESLAND , NO) observed 0520 UTC 18 June 2019
Temperature: 13.0°C (55°F)
Dewpoint: 10.0°C (50°F) [RH = 82%]
Pressure (altimeter): 29.82 inches Hg (1010.0 mb)
Winds: from the SSE (160 degrees) at 18 MPH (16 knots; 8.2 m/s)
Visibility: 6 or more miles (10+ km)
Ceiling: 2000 feet AGL
Clouds: few clouds at 800 feet AGL
scattered clouds at 1500 feet AGL
broken clouds at 2000 feet AGL
Weather: VCSH  (showers in vicinity)

METAR text: ENBR 180450Z 16014KT 9999 VCSH FEW012TCU BKN015 13/10 Q1011 TEMPO BKN013 RMK WIND 1200FT 15020KT
Conditions at: ENBR (BERGEN/FLESLAND , NO) observed 0450 UTC 18 June 2019
Temperature: 13.0°C (55°F)
Dewpoint: 10.0°C (50°F) [RH = 82%]
Pressure (altimeter): 29.85 inches Hg (1011.0 mb)
Winds: from the SSE (160 degrees) at 16 MPH (14 knots; 7.2 m/s)
Visibility: 6 or more miles (10+ km)
Ceiling: 1500 feet AGL
Clouds: few clouds at 1200 feet AGL
broken clouds at 1500 feet AGL
Weather: VCSH  (showers in vicinity)

METAR text: ENBR 180420Z 16014KT 9999 FEW010 SCT015 BKN025 13/10 Q1011 TEMPO BKN013 RMK WIND 1200FT 16020KT
Conditions at: ENBR (BERGEN/FLESLAND , NO) observed 0420 UTC 18 June 2019
Temperature: 13.0°C (55°F)
Dewpoint: 10.0°C (50°F) [RH = 82%]
Pressure (altimeter): 29.85 inches Hg (1011.0 mb)
Winds: from the SSE (160 degrees) at 16 MPH (14 knots; 7.2 m/s)
Visibility: 6 or more miles (10+ km)
Ceiling: 2500 feet AGL
Clouds: few clouds at 1000 feet AGL
scattered clouds at 1500 feet AGL
broken clouds at 2500 feet AGL
Weather: no significant weather observed at this time

METAR text: ENBR 180350Z 16013KT 9999 FEW011 SCT017 BKN060 13/10 Q1011 RMK WIND 1200FT 16020KT
Conditions at: ENBR (BERGEN/FLESLAND , NO) observed 0350 UTC 18 June 2019
Temperature: 13.0°C (55°F)
Dewpoint: 10.0°C (50°F) [RH = 82%]
Pressure (altimeter): 29.85 inches Hg (1011.0 mb)
Winds: from the SSE (160 degrees) at 15 MPH (13 knots; 6.7 m/s)
Visibility: 6 or more miles (10+ km)
Ceiling: 6000 feet AGL
Clouds: few clouds at 1100 feet AGL
scattered clouds at 1700 feet AGL
broken clouds at 6000 feet AGL
Weather: no significant weather observed at this time

METAR text: ENBR 180250Z 16016KT 9999 SCT011 BKN080 13/11 Q1011 RMK WIND 1200FT 16021KT
Conditions at: ENBR (BERGEN/FLESLAND , NO) observed 0250 UTC 18 June 2019
Temperature: 13.0°C (55°F)
Dewpoint: 11.0°C (52°F) [RH = 88%]
Pressure (altimeter): 29.85 inches Hg (1011.0 mb)
Winds: from the SSE (160 degrees) at 18 MPH (16 knots; 8.2 m/s)
Visibility: 6 or more miles (10+ km)
Ceiling: 8000 feet AGL
Clouds: scattered clouds at 1100 feet AGL
broken clouds at 8000 feet AGL
Weather: no significant weather observed at this time

METAR text: ENBR 180150Z 17015KT 9999 SCT009 BKN013 13/11 Q1011 RMK WIND 1200FT 17023KT
Conditions at: ENBR (BERGEN/FLESLAND , NO) observed 0150 UTC 18 June 2019
Temperature: 13.0°C (55°F)
Dewpoint: 11.0°C (52°F) [RH = 88%]
Pressure (altimeter): 29.85 inches Hg (1011.0 mb)
Winds: from the S (170 degrees) at 17 MPH (15 knots; 7.7 m/s)
Visibility: 6 or more miles (10+ km)
Ceiling: 1300 feet AGL
Clouds: scattered clouds at 900 feet AGL
broken clouds at 1300 feet AGL
Weather: no significant weather observed at this time

METAR text: ENBR 180050Z 17016KT 9999 FEW010 SCT015 BKN065 13/10 Q1011 RMK WIND 1200FT 16021KT
Conditions at: ENBR (BERGEN/FLESLAND , NO) observed 0050 UTC 18 June 2019
Temperature: 13.0°C (55°F)
Dewpoint: 10.0°C (50°F) [RH = 82%]
Pressure (altimeter): 29.85 inches Hg (1011.0 mb)
Winds: from the S (170 degrees) at 18 MPH (16 knots; 8.2 m/s)
Visibility: 6 or more miles (10+ km)
Ceiling: 6500 feet AGL
Clouds: few clouds at 1000 feet AGL
scattered clouds at 1500 feet AGL
broken clouds at 6500 feet AGL
Weather: no significant weather observed at this time

METAR text: ENBR 172350Z 17014KT 9999 FEW010 SCT015 BKN025 12/10 Q1012 RMK WIND 1200FT 16020KT
Conditions at: ENBR (BERGEN/FLESLAND , NO) observed 2350 UTC 17 June 2019
Temperature: 12.0°C (54°F)
Dewpoint: 10.0°C (50°F) [RH = 88%]
Pressure (altimeter): 29.88 inches Hg (1012.0 mb)
Winds: from the S (170 degrees) at 16 MPH (14 knots; 7.2 m/s)
Visibility: 6 or more miles (10+ km)
Ceiling: 2500 feet AGL
Clouds: few clouds at 1000 feet AGL
scattered clouds at 1500 feet AGL
broken clouds at 2500 feet AGL
Weather: no significant weather observed at this time

METAR text: ENBR 172250Z 16013KT 9999 FEW010 SCT014 BKN026 12/10 Q1012 RMK WIND 1200FT 16022KT
Conditions at: ENBR (BERGEN/FLESLAND , NO) observed 2250 UTC 17 June 2019
Temperature: 12.0°C (54°F)
Dewpoint: 10.0°C (50°F) [RH = 88%]
Pressure (altimeter): 29.88 inches Hg (1012.0 mb)
Winds: from the SSE (160 degrees) at 15 MPH (13 knots; 6.7 m/s)
Visibility: 6 or more miles (10+ km)
Ceiling: 2600 feet AGL
Clouds: few clouds at 1000 feet AGL
scattered clouds at 1400 feet AGL
broken clouds at 2600 feet AGL
Weather: no significant weather observed at this time

METAR text: ENBR 172150Z 18015KT 9999 FEW007 SCT012 BKN025 12/10 Q1012 RMK WIND 1200FT 17021G32KT
Conditions at: ENBR (BERGEN/FLESLAND , NO) observed 2150 UTC 17 June 2019
Temperature: 12.0°C (54°F)
Dewpoint: 10.0°C (50°F) [RH = 88%]
Pressure (altimeter): 29.88 inches Hg (1012.0 mb)
Winds: from the S (180 degrees) at 17 MPH (15 knots; 7.7 m/s)
Visibility: 6 or more miles (10+ km)
Ceiling: 2500 feet AGL
Clouds: few clouds at 700 feet AGL
scattered clouds at 1200 feet AGL
broken clouds at 2500 feet AGL
Weather: no significant weather observed at this time

METAR text: ENBR 172120Z 18015G25KT 9999 VCSH FEW007 SCT012 BKN022 12/10 Q1013 RMK WIND 1200FT 18020G30KT
Conditions at: ENBR (BERGEN/FLESLAND , NO) observed 2120 UTC 17 June 2019
Temperature: 12.0°C (54°F)
Dewpoint: 10.0°C (50°F) [RH = 88%]
Pressure (altimeter): 29.91 inches Hg (1013.0 mb)
Winds: from the S (180 degrees) at 17 MPH (15 knots; 7.7 m/s)
gusting to 29 MPH (25 knots; 12.9 m/s)
Visibility: 6 or more miles (10+ km)
Ceiling: 2200 feet AGL
Clouds: few clouds at 700 feet AGL
scattered clouds at 1200 feet AGL
broken clouds at 2200 feet AGL
Weather: VCSH  (showers in vicinity)

METAR text: ENBR 172050Z 19015KT 9999 VCSH FEW007 SCT010 BKN020 12/11 Q1013 RMK WIND 1200FT 1801828KT
Conditions at: ENBR (BERGEN/FLESLAND , NO) observed 2050 UTC 17 June 2019
Temperature: 12.0°C (54°F)
Dewpoint: 11.0°C (52°F) [RH = 94%]
Pressure (altimeter): 29.91 inches Hg (1013.0 mb)
Winds: from the S (190 degrees) at 17 MPH (15 knots; 7.7 m/s)
Visibility: 6 or more miles (10+ km)
Ceiling: 2000 feet AGL
Clouds: few clouds at 700 feet AGL
scattered clouds at 1000 feet AGL
broken clouds at 2000 feet AGL
Weather: VCSH  (showers in vicinity)

METAR text: ENBR 172020Z 19016KT 9999 VCSH FEW008 SCT015 BKN025 12/11 Q1013 RMK WIND 1200FT 18024KT
Conditions at: ENBR (BERGEN/FLESLAND , NO) observed 2020 UTC 17 June 2019
Temperature: 12.0°C (54°F)
Dewpoint: 11.0°C (52°F) [RH = 94%]
Pressure (altimeter): 29.91 inches Hg (1013.0 mb)
Winds: from the S (190 degrees) at 18 MPH (16 knots; 8.2 m/s)
Visibility: 6 or more miles (10+ km)
Ceiling: 2500 feet AGL
Clouds: few clouds at 800 feet AGL
scattered clouds at 1500 feet AGL
broken clouds at 2500 feet AGL
Weather: VCSH  (showers in vicinity)

METAR text: ENBR 171950Z 19015KT 9999 VCSH FEW008 SCT015CB BKN020 12/11 Q1012 RMK WIND 1200FT 19020G30KT
Conditions at: ENBR (BERGEN/FLESLAND , NO) observed 1950 UTC 17 June 2019
Temperature: 12.0°C (54°F)
Dewpoint: 11.0°C (52°F) [RH = 94%]
Pressure (altimeter): 29.88 inches Hg (1012.0 mb)
Winds: from the S (190 degrees) at 17 MPH (15 knots; 7.7 m/s)
Visibility: 6 or more miles (10+ km)
Ceiling: 2000 feet AGL
Clouds: few clouds at 800 feet AGL
scattered clouds at 1500 feet AGL
broken clouds at 2000 feet AGL
Weather: VCSH  (showers in vicinity)

METAR text: ENBR 171920Z 19015KT 9000 VCSH SCT008 FEW015CB BKN018 12/11 Q1012 TEMPO 3000 RA BR BKN005 SCT015CB RMK WIND 1200FT 19020G30KT
Conditions at: ENBR (BERGEN/FLESLAND , NO) observed 1920 UTC 17 June 2019
Temperature: 12.0°C (54°F)
Dewpoint: 11.0°C (52°F) [RH = 94%]
Pressure (altimeter): 29.88 inches Hg (1012.0 mb)
Winds: from the S (190 degrees) at 17 MPH (15 knots; 7.7 m/s)
Visibility: 6 miles ( 9 km)
Ceiling: 1800 feet AGL
Clouds: scattered clouds at 800 feet AGL
few clouds at 1500 feet AGL
broken clouds at 1800 feet AGL
Weather: VCSH  (showers in vicinity)

METAR text: ENBR 171850Z 19015KT 9999 VCSH SCT008 BKN018 12/11 Q1012 TEMPO 3000 RA BR BKN005 SCT015CB RMK WIND 1200FT 19022G33KT
Conditions at: ENBR (BERGEN/FLESLAND , NO) observed 1850 UTC 17 June 2019
Temperature: 12.0°C (54°F)
Dewpoint: 11.0°C (52°F) [RH = 94%]
Pressure (altimeter): 29.88 inches Hg (1012.0 mb)
Winds: from the S (190 degrees) at 17 MPH (15 knots; 7.7 m/s)
Visibility: 6 or more miles (10+ km)
Ceiling: 1800 feet AGL
Clouds: scattered clouds at 800 feet AGL
broken clouds at 1800 feet AGL
Weather: VCSH  (showers in vicinity)

METAR text: ENBR 171820Z 19017KT 9999 VCSH FEW006 SCT009 BKN020 12/11 Q1012 RESHRA TEMPO 3000 RA BR BKN005 SCT015CB RMK WIND 1200FT 19022G33KT
Conditions at: ENBR (BERGEN/FLESLAND , NO) observed 1820 UTC 17 June 2019
Temperature: 12.0°C (54°F)
Dewpoint: 11.0°C (52°F) [RH = 94%]
Pressure (altimeter): 29.88 inches Hg (1012.0 mb)
Winds: from the S (190 degrees) at 20 MPH (17 knots; 8.7 m/s)
Visibility: 6 or more miles (10+ km)
Ceiling: 2000 feet AGL
Clouds: few clouds at 600 feet AGL
scattered clouds at 900 feet AGL
broken clouds at 2000 feet AGL
Weather: VCSH  (showers in vicinity)

METAR text: ENBR 171750Z 19014KT 9000 SHRA FEW003 SCT006 BKN009 13/12 Q1012 TEMPO 3000 DZRA BR BKN005 RMK WIND 1200FT 19023G33KT
Conditions at: ENBR (BERGEN/FLESLAND , NO) observed 1750 UTC 17 June 2019
Temperature: 13.0°C (55°F)
Dewpoint: 12.0°C (54°F) [RH = 94%]
Pressure (altimeter): 29.88 inches Hg (1012.0 mb)
Winds: from the S (190 degrees) at 16 MPH (14 knots; 7.2 m/s)
Visibility: 6 miles ( 9 km)
Ceiling: 900 feet AGL
Clouds: few clouds at 300 feet AGL
scattered clouds at 600 feet AGL
broken clouds at 900 feet AGL
Weather: SHRA  (rain showers)

METAR text: ENBR 171720Z 19016KT 9999 VCSH FEW006 SCT010 BKN012 13/11 Q1012 TEMPO 3000 DZRA BR BKN005 RMK WIND 1200FT 18022KT
Conditions at: ENBR (BERGEN/FLESLAND , NO) observed 1720 UTC 17 June 2019
Temperature: 13.0°C (55°F)
Dewpoint: 11.0°C (52°F) [RH = 88%]
Pressure (altimeter): 29.88 inches Hg (1012.0 mb)
Winds: from the S (190 degrees) at 18 MPH (16 knots; 8.2 m/s)
Visibility: 6 or more miles (10+ km)
Ceiling: 1200 feet AGL
Clouds: few clouds at 600 feet AGL
scattered clouds at 1000 feet AGL
broken clouds at 1200 feet AGL
Weather: VCSH  (showers in vicinity)

METAR text: ENBR 171650Z 19015KT 9999 FEW007 SCT010 BKN015 13/11 Q1012 TEMPO 3000 DZRA BR BKN005 RMK WIND 1200FT 19021KT
Conditions at: ENBR (BERGEN/FLESLAND , NO) observed 1650 UTC 17 June 2019
Temperature: 13.0°C (55°F)
Dewpoint: 11.0°C (52°F) [RH = 88%]
Pressure (altimeter): 29.88 inches Hg (1012.0 mb)
Winds: from the S (190 degrees) at 17 MPH (15 knots; 7.7 m/s)
Visibility: 6 or more miles (10+ km)
Ceiling: 1500 feet AGL
Clouds: few clouds at 700 feet AGL
scattered clouds at 1000 feet AGL
broken clouds at 1500 feet AGL
Weather: no significant weather observed at this time

METAR text: ENBR 171620Z 19016KT 9999 FEW007 SCT010 BKN013 13/12 Q1012 RMK WIND 1200FT 18024G35KT
Conditions at: ENBR (BERGEN/FLESLAND , NO) observed 1620 UTC 17 June 2019
Temperature: 13.0°C (55°F)
Dewpoint: 12.0°C (54°F) [RH = 94%]
Pressure (altimeter): 29.88 inches Hg (1012.0 mb)
Winds: from the S (190 degrees) at 18 MPH (16 knots; 8.2 m/s)
Visibility: 6 or more miles (10+ km)
Ceiling: 1300 feet AGL
Clouds: few clouds at 700 feet AGL
scattered clouds at 1000 feet AGL
broken clouds at 1300 feet AGL
Weather: no significant weather observed at this time

METAR text: ENBR 171550Z 17016KT 9999 SCT005 BKN010 13/12 Q1012 TEMPO 3000 DZRA BR BKN005 RMK WIND 1200FT 18021G34KT
Conditions at: ENBR (BERGEN/FLESLAND , NO) observed 1550 UTC 17 June 2019
Temperature: 13.0°C (55°F)
Dewpoint: 12.0°C (54°F) [RH = 94%]
Pressure (altimeter): 29.88 inches Hg (1012.0 mb)
Winds: from the S (170 degrees) at 18 MPH (16 knots; 8.2 m/s)
Visibility: 6 or more miles (10+ km)
Ceiling: 1000 feet AGL
Clouds: scattered clouds at 500 feet AGL
broken clouds at 1000 feet AGL
Weather: no significant weather observed at this time

METAR text: ENBR 171520Z 18019KT 9000 -DZ SCT005 BKN008 13/12 Q1012 TEMPO 3000 DZRA BR BKN005 RMK WIND 1200FT 17022KT
Conditions at: ENBR (BERGEN/FLESLAND , NO) observed 1520 UTC 17 June 2019
Temperature: 13.0°C (55°F)
Dewpoint: 12.0°C (54°F) [RH = 94%]
Pressure (altimeter): 29.88 inches Hg (1012.0 mb)
Winds: from the S (180 degrees) at 22 MPH (19 knots; 9.8 m/s)
Visibility: 6 miles ( 9 km)
Ceiling: 800 feet AGL
Clouds: scattered clouds at 500 feet AGL
broken clouds at 800 feet AGL
Weather: -DZ  (light drizzle)

METAR text: ENBR 171450Z 19020KT 7000 DZ FEW005 SCT011 BKN018 13/11 Q1012 TEMPO 3000 DZRA BR BKN005 RMK WIND 1200FT 17025G39KT
Conditions at: ENBR (BERGEN/FLESLAND , NO) observed 1450 UTC 17 June 2019
Temperature: 13.0°C (55°F)
Dewpoint: 11.0°C (52°F) [RH = 88%]
Pressure (altimeter): 29.88 inches Hg (1012.0 mb)
Winds: from the S (190 degrees) at 23 MPH (20 knots; 10.3 m/s)
Visibility: 4 miles ( 7 km)
Ceiling: 1800 feet AGL
Clouds: few clouds at 500 feet AGL
scattered clouds at 1100 feet AGL
broken clouds at 1800 feet AGL
Weather: DZ  (moderate drizzle)

METAR text: ENBR 171420Z 19016KT 9999 VCSH FEW007 SCT015TCU BKN021 14/11 Q1012 TEMPO BKN009 RMK WIND 1200FT 18024G37KT
Conditions at: ENBR (BERGEN/FLESLAND , NO) observed 1420 UTC 17 June 2019
Temperature: 14.0°C (57°F)
Dewpoint: 11.0°C (52°F) [RH = 82%]
Pressure (altimeter): 29.88 inches Hg (1012.0 mb)
Winds: from the S (190 degrees) at 18 MPH (16 knots; 8.2 m/s)
Visibility: 6 or more miles (10+ km)
Ceiling: 2100 feet AGL
Clouds: few clouds at 700 feet AGL
scattered clouds at 1500 feet AGL
broken clouds at 2100 feet AGL
Weather: VCSH  (showers in vicinity)

METAR text: ENBR 171350Z 18017KT 9999 FEW015TCU SCT020 BKN030 14/12 Q1012 TEMPO BKN010 RMK WIND 1200FT 17025G35KT
Conditions at: ENBR (BERGEN/FLESLAND , NO) observed 1350 UTC 17 June 2019
Temperature: 14.0°C (57°F)
Dewpoint: 12.0°C (54°F) [RH = 88%]
Pressure (altimeter): 29.88 inches Hg (1012.0 mb)
Winds: from the S (180 degrees) at 20 MPH (17 knots; 8.7 m/s)
Visibility: 6 or more miles (10+ km)
Ceiling: 3000 feet AGL
Clouds: few clouds at 1500 feet AGL
scattered clouds at 2000 feet AGL
broken clouds at 3000 feet AGL
Weather: no significant weather observed at this time

METAR text: ENBR 171320Z 19018KT 9999 FEW010 SCT015TCU BKN020 14/11 Q1012 TEMPO BKN010 RMK WIND 1200FT 17031G44KT
Conditions at: ENBR (BERGEN/FLESLAND , NO) observed 1320 UTC 17 June 2019
Temperature: 14.0°C (57°F)
Dewpoint: 11.0°C (52°F) [RH = 82%]
Pressure (altimeter): 29.88 inches Hg (1012.0 mb)
Winds: from the S (190 degrees) at 21 MPH (18 knots; 9.3 m/s)
Visibility: 6 or more miles (10+ km)
Ceiling: 2000 feet AGL
Clouds: few clouds at 1000 feet AGL
scattered clouds at 1500 feet AGL
broken clouds at 2000 feet AGL
Weather: no significant weather observed at this time

METAR text: ENBR 171250Z 19016KT 9999 FEW010 SCT018TCU BKN045 14/12 Q1012 TEMPO BKN010 RMK WIND 1200FT 17030G42KT
Conditions at: ENBR (BERGEN/FLESLAND , NO) observed 1250 UTC 17 June 2019
Temperature: 14.0°C (57°F)
Dewpoint: 12.0°C (54°F) [RH = 88%]
Pressure (altimeter): 29.88 inches Hg (1012.0 mb)
Winds: from the S (190 degrees) at 18 MPH (16 knots; 8.2 m/s)
Visibility: 6 or more miles (10+ km)
Ceiling: 4500 feet AGL
Clouds: few clouds at 1000 feet AGL
scattered clouds at 1800 feet AGL
broken clouds at 4500 feet AGL
Weather: no significant weather observed at this time

METAR text: ENBR 171220Z 18015KT 140V210 9999 8000NE -SHRA FEW007 SCT015CB BKN023 14/11 Q1012 TEMPO SHRA BKN012CB RMK WIND 1200FT 17024G38KT
Conditions at: ENBR (BERGEN/FLESLAND , NO) observed 1220 UTC 17 June 2019
Temperature: 14.0°C (57°F)
Dewpoint: 11.0°C (52°F) [RH = 82%]
Pressure (altimeter): 29.88 inches Hg (1012.0 mb)
Winds: from the S (180 degrees) at 17 MPH (15 knots; 7.7 m/s)
Visibility: 6 or more miles (10+ km)
Ceiling: 2300 feet AGL
Clouds: few clouds at 700 feet AGL
scattered clouds at 1500 feet AGL
broken clouds at 2300 feet AGL
Weather: -SHRA  (light rain showers)

METAR text: ENBR 171150Z 15012KT 9999 -SHRA SCT020TCU BKN027 14/11 Q1012 TEMPO SHRA BKN012 RMK WIND 1200FT 15021KT
Conditions at: ENBR (BERGEN/FLESLAND , NO) observed 1150 UTC 17 June 2019
Temperature: 14.0°C (57°F)
Dewpoint: 11.0°C (52°F) [RH = 82%]
Pressure (altimeter): 29.88 inches Hg (1012.0 mb)
Winds: from the SSE (150 degrees) at 14 MPH (12 knots; 6.2 m/s)
Visibility: 6 or more miles (10+ km)
Ceiling: 2700 feet AGL
Clouds: scattered clouds at 2000 feet AGL
broken clouds at 2700 feet AGL
Weather: -SHRA  (light rain showers)

METAR text: ENBR 171120Z 15015KT 9999 9000SE -SHRA FEW015 SCT025 BKN035 15/10 Q1012 TEMPO SHRA BKN012 RMK WIND 1200FT 15017KT
Conditions at: ENBR (BERGEN/FLESLAND , NO) observed 1120 UTC 17 June 2019
Temperature: 15.0°C (59°F)
Dewpoint: 10.0°C (50°F) [RH = 72%]
Pressure (altimeter): 29.88 inches Hg (1012.0 mb)
Winds: from the SSE (150 degrees) at 17 MPH (15 knots; 7.7 m/s)
Visibility: 6 or more miles (10+ km)
Ceiling: 3500 feet AGL
Clouds: few clouds at 1500 feet AGL
scattered clouds at 2500 feet AGL
broken clouds at 3500 feet AGL
Weather: -SHRA  (light rain showers)

METAR text: ENBR 171050Z 16013KT 9999 -SHRA FEW027 BKN045 15/10 Q1012 NOSIG RMK WIND 1200FT 15018KT
Conditions at: ENBR (BERGEN/FLESLAND , NO) observed 1050 UTC 17 June 2019
Temperature: 15.0°C (59°F)
Dewpoint: 10.0°C (50°F) [RH = 72%]
Pressure (altimeter): 29.88 inches Hg (1012.0 mb)
Winds: from the SSE (160 degrees) at 15 MPH (13 knots; 6.7 m/s)
Visibility: 6 or more miles (10+ km)
Ceiling: 4500 feet AGL
Clouds: few clouds at 2700 feet AGL
broken clouds at 4500 feet AGL
Weather: -SHRA  (light rain showers)

METAR text: ENBR 171020Z 15016KT 9999 -SHRA FEW030 BKN053 16/08 Q1012 NOSIG RMK WIND 1200FT 14026KT
Conditions at: ENBR (BERGEN/FLESLAND , NO) observed 1020 UTC 17 June 2019
Temperature: 16.0°C (61°F)
Dewpoint: 8.0°C (46°F) [RH = 59%]
Pressure (altimeter): 29.88 inches Hg (1012.0 mb)
Winds: from the SSE (150 degrees) at 18 MPH (16 knots; 8.2 m/s)
Visibility: 6 or more miles (10+ km)
Ceiling: 5300 feet AGL
Clouds: few clouds at 3000 feet AGL
broken clouds at 5300 feet AGL
Weather: -SHRA  (light rain showers)

METAR text: ENBR 170950Z 15016KT 9999 VCSH FEW040 SCT055 BKN080 17/07 Q1012 NOSIG RMK WIND 1200FT 14026KT
Conditions at: ENBR (BERGEN/FLESLAND , NO) observed 0950 UTC 17 June 2019
Temperature: 17.0°C (63°F)
Dewpoint: 7.0°C (45°F) [RH = 52%]
Pressure (altimeter): 29.88 inches Hg (1012.0 mb)
Winds: from the SSE (150 degrees) at 18 MPH (16 knots; 8.2 m/s)
Visibility: 6 or more miles (10+ km)
Ceiling: 8000 feet AGL
Clouds: few clouds at 4000 feet AGL
scattered clouds at 5500 feet AGL
broken clouds at 8000 feet AGL
Weather: VCSH  (showers in vicinity)

METAR text: ENBR 170920Z 15014KT 9999 FEW040 BKN090 17/07 Q1012 NOSIG RMK WIND 1200FT 14026KT
Conditions at: ENBR (BERGEN/FLESLAND , NO) observed 0920 UTC 17 June 2019
Temperature: 17.0°C (63°F)
Dewpoint: 7.0°C (45°F) [RH = 52%]
Pressure (altimeter): 29.88 inches Hg (1012.0 mb)
Winds: from the SSE (150 degrees) at 16 MPH (14 knots; 7.2 m/s)
Visibility: 6 or more miles (10+ km)
Ceiling: 9000 feet AGL
Clouds: few clouds at 4000 feet AGL
broken clouds at 9000 feet AGL
Weather: no significant weather observed at this time

METAR text: ENBR 170850Z 16017KT 9999 FEW040 SCT085 16/06 Q1012 NOSIG RMK WIND 1200FT 13025KT
Conditions at: ENBR (BERGEN/FLESLAND , NO) observed 0850 UTC 17 June 2019
Temperature: 16.0°C (61°F)
Dewpoint: 6.0°C (43°F) [RH = 51%]
Pressure (altimeter): 29.88 inches Hg (1012.0 mb)
Winds: from the SSE (160 degrees) at 20 MPH (17 knots; 8.7 m/s)
Visibility: 6 or more miles (10+ km)
Ceiling: at least 12,000 feet AGL
Clouds: few clouds at 4000 feet AGL
scattered clouds at 8500 feet AGL
Weather: no significant weather observed at this time

METAR text: ENBR 170820Z 15015KT 9999 FEW040 BKN080 16/07 Q1013 NOSIG RMK WIND 1200FT 14023KT
Conditions at: ENBR (BERGEN/FLESLAND , NO) observed 0820 UTC 17 June 2019
Temperature: 16.0°C (61°F)
Dewpoint: 7.0°C (45°F) [RH = 55%]
Pressure (altimeter): 29.91 inches Hg (1013.0 mb)
Winds: from the SSE (150 degrees) at 17 MPH (15 knots; 7.7 m/s)
Visibility: 6 or more miles (10+ km)
Ceiling: 8000 feet AGL
Clouds: few clouds at 4000 feet AGL
broken clouds at 8000 feet AGL
Weather: no significant weather observed at this time

METAR text: ENBR 170750Z 16016KT 9999 SCT040 SCT080 15/07 Q1013 RMK WIND 1200FT 14024KT
Conditions at: ENBR (BERGEN/FLESLAND , NO) observed 0750 UTC 17 June 2019
Temperature: 15.0°C (59°F)
Dewpoint: 7.0°C (45°F) [RH = 59%]
Pressure (altimeter): 29.91 inches Hg (1013.0 mb)
Winds: from the SSE (160 degrees) at 18 MPH (16 knots; 8.2 m/s)
Visibility: 6 or more miles (10+ km)
Ceiling: at least 12,000 feet AGL
Clouds: scattered clouds at 4000 feet AGL
scattered clouds at 8000 feet AGL
Weather: no significant weather observed at this time

METAR text: ENBR 170720Z 16013KT 9999 BKN043 15/07 Q1013 NOSIG RMK WIND 1200FT 13025KT
Conditions at: ENBR (BERGEN/FLESLAND , NO) observed 0720 UTC 17 June 2019
Temperature: 15.0°C (59°F)
Dewpoint: 7.0°C (45°F) [RH = 59%]
Pressure (altimeter): 29.91 inches Hg (1013.0 mb)
Winds: from the SSE (160 degrees) at 15 MPH (13 knots; 6.7 m/s)
Visibility: 6 or more miles (10+ km)
Ceiling: 4300 feet AGL
Clouds: broken clouds at 4300 feet AGL
Weather: no significant weather observed at this time

METAR text: ENBR 170650Z 15012KT 120V180 9999 SCT045 15/07 Q1013 NOSIG RMK WIND 1200FT 13023KT
Conditions at: ENBR (BERGEN/FLESLAND , NO) observed 0650 UTC 17 June 2019
Temperature: 15.0°C (59°F)
Dewpoint: 7.0°C (45°F) [RH = 59%]
Pressure (altimeter): 29.91 inches Hg (1013.0 mb)
Winds: from the SSE (150 degrees) at 14 MPH (12 knots; 6.2 m/s)
Visibility: 6 or more miles (10+ km)
Ceiling: at least 12,000 feet AGL
Clouds: scattered clouds at 4500 feet AGL
Weather: no significant weather observed at this time

METAR text: ENBR 170620Z 15009KT 9999 FEW040 SCT050 14/07 Q1014 NOSIG RMK WIND 1200FT 14018KT
Conditions at: ENBR (BERGEN/FLESLAND , NO) observed 0620 UTC 17 June 2019
Temperature: 14.0°C (57°F)
Dewpoint: 7.0°C (45°F) [RH = 63%]
Pressure (altimeter): 29.94 inches Hg (1014.0 mb)
Winds: from the SSE (150 degrees) at 10 MPH (9 knots; 4.6 m/s)
Visibility: 6 or more miles (10+ km)
Ceiling: at least 12,000 feet AGL
Clouds: few clouds at 4000 feet AGL
scattered clouds at 5000 feet AGL
Weather: no significant weather observed at this time

METAR text: ENBR 170550Z 14009KT 9999 SCT045 13/07 Q1014 NOSIG RMK WIND 1200FT 13016KT
Conditions at: ENBR (BERGEN/FLESLAND , NO) observed 0550 UTC 17 June 2019
Temperature: 13.0°C (55°F)
Dewpoint: 7.0°C (45°F) [RH = 67%]
Pressure (altimeter): 29.94 inches Hg (1014.0 mb)
Winds: from the SE (140 degrees) at 10 MPH (9 knots; 4.6 m/s)
Visibility: 6 or more miles (10+ km)
Ceiling: at least 12,000 feet AGL
Clouds: scattered clouds at 4500 feet AGL
Weather: no significant weather observed at this time

METAR text: ENBR 170520Z 14009KT 9999 FEW040 13/08 Q1014 NOSIG RMK WIND 1200FT 13015KT
Conditions at: ENBR (BERGEN/FLESLAND , NO) observed 0520 UTC 17 June 2019
Temperature: 13.0°C (55°F)
Dewpoint: 8.0°C (46°F) [RH = 72%]
Pressure (altimeter): 29.94 inches Hg (1014.0 mb)
Winds: from the SE (140 degrees) at 10 MPH (9 knots; 4.6 m/s)
Visibility: 6 or more miles (10+ km)
Ceiling: at least 12,000 feet AGL
Clouds: few clouds at 4000 feet AGL
Weather: no significant weather observed at this time

METAR text: ENBR 170450Z 14006KT CAVOK 12/08 Q1014 NOSIG RMK WIND 1200FT 14015KT
Conditions at: ENBR (BERGEN/FLESLAND , NO) observed 0450 UTC 17 June 2019
Temperature: 12.0°C (54°F)
Dewpoint: 8.0°C (46°F) [RH = 76%]
Pressure (altimeter): 29.94 inches Hg (1014.0 mb)
Winds: from the SE (140 degrees) at 7 MPH (6 knots; 3.1 m/s)
Visibility: 6 or more miles (10+ km)
Ceiling: ceiling and visibility are OK
Clouds: unknown
Weather: no significant weather observed at this time

METAR text: ENBR 170420Z 14006KT CAVOK 11/08 Q1014 NOSIG RMK WIND 1200FT 14015KT
Conditions at: ENBR (BERGEN/FLESLAND , NO) observed 0420 UTC 17 June 2019
Temperature: 11.0°C (52°F)
Dewpoint: 8.0°C (46°F) [RH = 82%]
Pressure (altimeter): 29.94 inches Hg (1014.0 mb)
Winds: from the SE (140 degrees) at 7 MPH (6 knots; 3.1 m/s)
Visibility: 6 or more miles (10+ km)
Ceiling: ceiling and visibility are OK
Clouds: unknown
Weather: no significant weather observed at this time

METAR text: ENBR 170350Z 13006KT CAVOK 11/08 Q1015 RMK WIND 1200FT 14015KT
Conditions at: ENBR (BERGEN/FLESLAND , NO) observed 0350 UTC 17 June 2019
Temperature: 11.0°C (52°F)
Dewpoint: 8.0°C (46°F) [RH = 82%]
Pressure (altimeter): 29.97 inches Hg (1015.0 mb)
Winds: from the SE (130 degrees) at 7 MPH (6 knots; 3.1 m/s)
Visibility: 6 or more miles (10+ km)
Ceiling: ceiling and visibility are OK
Clouds: unknown
Weather: no significant weather observed at this time

METAR text: ENBR 170250Z 14006KT 9999 NSC 11/08 Q1015 RMK WIND 1200FT 14017KT
Conditions at: ENBR (BERGEN/FLESLAND , NO) observed 0250 UTC 17 June 2019
Temperature: 11.0°C (52°F)
Dewpoint: 8.0°C (46°F) [RH = 82%]
Pressure (altimeter): 29.97 inches Hg (1015.0 mb)
Winds: from the SE (140 degrees) at 7 MPH (6 knots; 3.1 m/s)
Visibility: 6 or more miles (10+ km)
Ceiling: at least 12,000 feet AGL
Clouds: sky clear below 12,000 feet AGL
Weather: no significant weather observed at this time

METAR text: ENBR 170150Z 15008KT 9999 NSC 11/08 Q1015 RMK WIND 1200FT 15017KT
Conditions at: ENBR (BERGEN/FLESLAND , NO) observed 0150 UTC 17 June 2019
Temperature: 11.0°C (52°F)
Dewpoint: 8.0°C (46°F) [RH = 82%]
Pressure (altimeter): 29.97 inches Hg (1015.0 mb)
Winds: from the SSE (150 degrees) at 9 MPH (8 knots; 4.1 m/s)
Visibility: 6 or more miles (10+ km)
Ceiling: at least 12,000 feet AGL
Clouds: sky clear below 12,000 feet AGL
Weather: no significant weather observed at this time

METAR text: ENBR 170050Z 16009KT 9999 FEW012 11/08 Q1015 RMK WIND 1200FT 15017KT
Conditions at: ENBR (BERGEN/FLESLAND , NO) observed 0050 UTC 17 June 2019
Temperature: 11.0°C (52°F)
Dewpoint: 8.0°C (46°F) [RH = 82%]
Pressure (altimeter): 29.97 inches Hg (1015.0 mb)
Winds: from the SSE (160 degrees) at 10 MPH (9 knots; 4.6 m/s)
Visibility: 6 or more miles (10+ km)
Ceiling: at least 12,000 feet AGL
Clouds: few clouds at 1200 feet AGL
Weather: no significant weather observed at this time

METAR text: ENBR 162350Z 13005KT 9999 FEW012 10/08 Q1015 RMK WIND 1200FT 15016KT
Conditions at: ENBR (BERGEN/FLESLAND , NO) observed 2350 UTC 16 June 2019
Temperature: 10.0°C (50°F)
Dewpoint: 8.0°C (46°F) [RH = 87%]
Pressure (altimeter): 29.97 inches Hg (1015.0 mb)
Winds: from the SE (130 degrees) at 6 MPH (5 knots; 2.6 m/s)
Visibility: 6 or more miles (10+ km)
Ceiling: at least 12,000 feet AGL
Clouds: few clouds at 1200 feet AGL
Weather: no significant weather observed at this time

Forecast for: ENBR (BERGEN/FLESLAND , NO)
Text: TAF ENBR 1806/1906 17015KT 9999 -SHRA SCT012TCU BKN020
Forecast period: 0600 UTC 18 June 2019 to 0600 UTC 19 June 2019
Forecast type: FROM: standard forecast or significant change
Winds: from the S (170 degrees) at 17 MPH (15 knots; 7.7 m/s)
Visibility: 6 or more miles 10+ km)
Ceiling: 2000 feet AGL
Clouds: scattered clouds at 1200 feet AGL
broken clouds at 2000 feet AGL
Weather: -SHRA  (light rain showers)
Text: TEMPO 1806/1906 4000 SHRA BR BKN009 FEW015CB
Forecast period: 0600 UTC 18 June 2019 to 0600 UTC 19 June 2019
Forecast type: TEMPORARY: The following changes expected for less than half the time period
Visibility: 2.49 miles (4.01 km)
Ceiling: 900 feet AGL
Clouds: broken clouds at 900 feet AGL
few clouds at 1500 feet AGL
Weather: SHRA BR  (rain showers, mist)